Crumpler, NC

8:57 PM EST on December 02, 2016 (GMT -0500)
Ashe County

Weather History for KGEV - May, 2013

Change the Weather History Date:

Wednesday, May 15, 2013

  Actual Average Record
Temperature  
Mean Temperature 70 °F -  
Max Temperature 80 °F 71 °F 81 °F (1970)
Min Temperature 61 °F 46 °F 35 °F (2016)
Cooling Degree Days 6    
Growing Degree Days 20 (Base 50)    
Moisture  
Dew Point 46 °F    
Average Humidity 45    
Maximum Humidity 62    
Minimum Humidity 26    
Precipitation  
Precipitation 0.00 in - - ()
Sea Level Pressure  
Sea Level Pressure 30.09 in    
Wind  
Wind Speed 19 mph (West)    
Max Wind Speed 36 mph    
Max Gust Speed 51 mph    
Visibility 10 miles    
Events      
Averages and records for this station are not official NWS values.
T = Trace of Precipitation, MM = Missing Value Source: NWS Daily Summary

Daily Weather History Graph

Daily Weather History Graph

Search for Another Location

Airport or City:

Trip Planner

Search our weather history database for the weather conditions in past years. The results will help you decide how hot, cold, wet, or windy it might be!

Date:

Astronomy

May. 15, 2013 Rise Set
Actual Time 6:18 AM EDT 8:25 PM EDT
Civil Twilight 5:50 AM EDT 8:54 PM EDT
Nautical Twilight 5:14 AM EDT 9:29 PM EDT
Astronomical Twilight 4:37 AM EDT 10:07 PM EDT
Moon 10:51 AM EDT (5/15) 12:12 AM EDT (5/15)
Length of Visible Light 15h 04m
Length of Day
14h 07m
Waxing Crescent, 26% of the Moon is Illuminated
May 15
Waxing Crescent
May 18
First Quarter
May 25
Full
May 31
Last Quarter
Jun 8
New

Hourly Weather History & Observations

Time (EDT) Temp. Dew Point Humidity Pressure Visibility Wind Dir Wind Speed Gust Speed Precip Events Conditions
12:15 AM 63.0 °F 44.6 °F 51% 30.09 in 10.0 mi West 18.4 mph 25.3 mph N/A   Clear
12:35 AM 63.5 °F 45.0 °F 51% 30.09 in 10.0 mi West 13.8 mph 34.5 mph N/A   Clear
12:55 AM 63.7 °F 45.5 °F 52% 30.08 in 10.0 mi West 19.6 mph 27.6 mph N/A   Clear
1:15 AM 63.7 °F 45.9 °F 52% 30.08 in 10.0 mi West 18.4 mph 28.8 mph N/A   Clear
1:35 AM 63.5 °F 46.4 °F 54% 30.06 in 10.0 mi West 25.3 mph 39.1 mph N/A   Clear
1:55 AM 63.5 °F 46.8 °F 54% 30.05 in 10.0 mi West 25.3 mph 48.3 mph N/A   Clear
2:35 AM 63.0 °F 47.5 °F 57% 30.04 in 10.0 mi West 31.1 mph 47.2 mph N/A   Clear
2:55 AM 63.0 °F 47.8 °F 58% 30.04 in 10.0 mi West 35.7 mph 47.2 mph N/A   Clear
3:15 AM 62.8 °F 48.2 °F 59% 30.05 in 10.0 mi West 33.4 mph 50.6 mph N/A   Clear
3:35 AM 62.6 °F 48.2 °F 59% 30.05 in 10.0 mi West 33.4 mph 43.7 mph N/A   Clear
3:55 AM 62.4 °F 48.4 °F 60% 30.06 in 10.0 mi West 27.6 mph 35.7 mph N/A   Clear
4:15 AM 62.6 °F 48.4 °F 60% 30.07 in 10.0 mi West 21.9 mph 36.8 mph N/A   Clear
4:35 AM 62.4 °F 48.6 °F 60% 30.06 in 10.0 mi West 33.4 mph 44.9 mph N/A   Clear
4:55 AM 62.2 °F 48.7 °F 61% 30.07 in 10.0 mi West 29.9 mph 48.3 mph N/A   Clear
5:15 AM 62.1 °F 48.7 °F 62% 30.07 in 10.0 mi West 35.7 mph 43.7 mph N/A   Clear
5:35 AM 61.9 °F 48.7 °F 62% 30.08 in 10.0 mi West 25.3 mph 38.0 mph N/A   Clear
5:55 AM 61.9 °F 48.7 °F 62% 30.07 in 10.0 mi West 29.9 mph 48.3 mph N/A   Clear
6:15 AM 62.6 °F 48.6 °F 60% 30.07 in 10.0 mi West 31.1 mph 42.6 mph N/A   Clear
6:35 AM 62.4 °F 48.6 °F 60% 30.09 in 10.0 mi West 23.0 mph 38.0 mph N/A   Clear
6:55 AM 62.2 °F 48.6 °F 61% 30.10 in 10.0 mi WNW 26.5 mph 42.6 mph N/A   Clear
7:15 AM 62.2 °F 48.4 °F 60% 30.11 in 10.0 mi West 29.9 mph 46.0 mph N/A   Clear
7:35 AM 62.4 °F 48.2 °F 60% 30.10 in 10.0 mi West 27.6 mph 38.0 mph N/A   Clear
7:55 AM 62.6 °F 48.2 °F 59% 30.11 in 10.0 mi West 31.1 mph 41.4 mph N/A   Clear
8:15 AM 63.1 °F 47.8 °F 57% 30.12 in 10.0 mi West 26.5 mph 39.1 mph N/A   Clear
8:35 AM 64.2 °F 47.8 °F 55% 30.12 in 10.0 mi West 29.9 mph 44.9 mph N/A   Clear
8:55 AM 64.0 °F 47.7 °F 55% 30.12 in 10.0 mi West 24.2 mph 40.3 mph N/A   Clear
9:15 AM 65.8 °F 47.7 °F 52% 30.13 in 10.0 mi West 18.4 mph 35.7 mph N/A   Clear
9:35 AM 67.1 °F 47.7 °F 50% 30.12 in 10.0 mi West 15.0 mph 27.6 mph N/A   Clear
9:55 AM 68.2 °F 47.3 °F 47% 30.12 in 10.0 mi WNW 16.1 mph 36.8 mph N/A   Clear
10:15 AM 69.1 °F 47.1 °F 45% 30.12 in 10.0 mi WNW 12.7 mph 27.6 mph N/A   Clear
10:35 AM 69.8 °F 46.8 °F 44% 30.13 in 10.0 mi WNW 13.8 mph 31.1 mph N/A   Clear
10:55 AM 70.7 °F 47.3 °F 43% 30.13 in 10.0 mi West 6.9 mph 18.4 mph N/A   Clear
11:15 AM 71.6 °F 46.9 °F 41% 30.14 in 10.0 mi West 12.7 mph 19.6 mph N/A   Clear
11:35 AM 72.5 °F 46.8 °F 40% 30.14 in 10.0 mi West 9.2 mph 19.6 mph N/A   Clear
11:55 AM 73.6 °F 47.8 °F 40% 30.14 in 10.0 mi West 8.1 mph 17.3 mph N/A   Clear
12:15 PM 74.8 °F 47.3 °F 38% 30.14 in 10.0 mi West 11.5 mph 18.4 mph N/A   Clear
12:35 PM 75.7 °F 47.7 °F 37% 30.13 in 10.0 mi West 10.4 mph 18.4 mph N/A   Clear
12:55 PM 76.3 °F 46.9 °F 35% 30.13 in 10.0 mi West 15.0 mph 20.7 mph N/A   Clear
1:15 PM 76.8 °F 46.6 °F 34% 30.12 in 10.0 mi West 17.3 mph - N/A   Clear
1:55 PM 77.5 °F 46.0 °F 33% 30.11 in 10.0 mi WNW 17.3 mph 21.9 mph N/A   Clear
2:15 PM 77.2 °F 45.7 °F 33% 30.11 in 10.0 mi West 13.8 mph 28.8 mph N/A   Clear
2:35 PM 78.1 °F 45.1 °F 31% 30.11 in 10.0 mi West 11.5 mph 26.5 mph N/A   Clear
2:55 PM 78.3 °F 44.2 °F 30% 30.11 in 10.0 mi West 6.9 mph 24.2 mph N/A   Clear
3:15 PM 79.3 °F 43.7 °F 28% 30.10 in 10.0 mi WSW 13.8 mph 17.3 mph N/A   Clear
3:35 PM 79.3 °F 43.3 °F 28% 30.10 in 10.0 mi West 8.1 mph 12.7 mph N/A   Clear
3:55 PM 79.0 °F 42.8 °F 28% 30.10 in 10.0 mi West 10.4 mph 23.0 mph N/A   Clear
4:15 PM 79.2 °F 44.1 °F 29% 30.09 in 10.0 mi West 8.1 mph 20.7 mph N/A   Clear
4:35 PM 78.8 °F 43.7 °F 29% 30.08 in 10.0 mi West 9.2 mph 20.7 mph N/A   Clear
4:55 PM 80.1 °F 43.2 °F 27% 30.08 in 10.0 mi West 16.1 mph 23.0 mph N/A   Clear
5:35 PM 78.1 °F 40.6 °F 26% 30.08 in 10.0 mi West 18.4 mph 25.3 mph N/A   Clear
5:55 PM 77.7 °F 41.9 °F 28% 30.08 in 10.0 mi WNW 15.0 mph 20.7 mph N/A   Clear
6:15 PM 77.9 °F 41.0 °F 27% 30.08 in 10.0 mi West 13.8 mph 19.6 mph N/A   Clear
6:35 PM 76.8 °F 42.3 °F 29% 30.08 in 10.0 mi WNW 9.2 mph 21.9 mph N/A   Clear
6:55 PM 76.1 °F 41.5 °F 29% 30.07 in 10.0 mi West 9.2 mph 17.3 mph N/A   Clear
7:15 PM 76.1 °F 42.1 °F 30% 30.07 in 10.0 mi West 12.7 mph 16.1 mph N/A   Clear
7:35 PM 75.2 °F 41.5 °F 30% 30.07 in 10.0 mi West 8.1 mph 16.1 mph N/A   Clear
7:55 PM 74.1 °F 41.9 °F 31% 30.07 in 10.0 mi West 9.2 mph - N/A   Clear
8:15 PM 72.9 °F 43.7 °F 35% 30.07 in 10.0 mi WSW 6.9 mph - N/A   Clear
8:35 PM 71.6 °F 45.0 °F 38% 30.08 in 10.0 mi WSW 8.1 mph - N/A   Clear
8:55 PM 71.1 °F 44.8 °F 39% 30.07 in 10.0 mi WSW 5.8 mph - N/A   Clear
9:15 PM 70.7 °F 43.5 °F 37% 30.08 in 10.0 mi WSW 5.8 mph - N/A   Clear
9:35 PM 70.7 °F 42.8 °F 36% 30.07 in 10.0 mi WSW 5.8 mph - N/A   Clear
9:55 PM 70.2 °F 43.7 °F 38% 30.08 in 10.0 mi West 8.1 mph - N/A   Clear
10:15 PM 69.3 °F 45.5 °F 42% 30.09 in 10.0 mi West 6.9 mph - N/A   Clear
10:35 PM 68.9 °F 46.4 °F 44% 30.09 in 10.0 mi West 4.6 mph - N/A   Clear
10:55 PM 67.3 °F 47.3 °F 49% 30.09 in 10.0 mi West 4.6 mph - N/A   Clear
11:15 PM 66.4 °F 47.5 °F 51% 30.09 in 10.0 mi SSW 3.5 mph - N/A   Clear
11:35 PM 67.1 °F 47.3 °F 49% 30.08 in 10.0 mi WSW 3.5 mph - N/A   Clear
11:55 PM 67.6 °F 47.3 °F 48% 30.08 in 10.0 mi West 8.1 mph - N/A   Clear